createdAt,value
2017-06-09T00:01:56.136Z,16.20
2017-06-09T00:04:23.716Z,16.20
2017-06-09T00:06:51.268Z,16.20
2017-06-09T00:09:18.821Z,16.10
2017-06-09T00:11:46.401Z,16.10
2017-06-09T00:14:13.944Z,16.10
2017-06-09T00:16:41.484Z,16.10
2017-06-09T00:19:09.460Z,16.00
2017-06-09T00:21:37.011Z,16.10
2017-06-09T00:24:04.591Z,16.00
2017-06-09T00:26:32.165Z,16.00
2017-06-09T00:28:59.711Z,15.90
2017-06-09T00:31:27.257Z,15.80
2017-06-09T00:33:54.820Z,15.80
2017-06-09T00:36:22.774Z,15.70
2017-06-09T00:38:50.371Z,15.80
2017-06-09T00:41:17.940Z,15.70
2017-06-09T00:43:45.492Z,15.70
2017-06-09T00:46:13.048Z,15.70
2017-06-09T00:48:40.621Z,15.70
2017-06-09T00:51:08.576Z,15.50
2017-06-09T00:53:36.116Z,15.50
2017-06-09T00:56:03.704Z,15.50
2017-06-09T00:58:31.256Z,15.50
2017-06-09T01:00:58.811Z,15.50
2017-06-09T01:03:26.775Z,15.50
2017-06-09T01:05:54.320Z,15.50
2017-06-09T01:08:21.856Z,15.40
2017-06-09T01:10:49.425Z,15.20
2017-06-09T01:13:16.975Z,15.10
2017-06-09T01:15:44.521Z,15.10
2017-06-09T01:18:12.100Z,15.10
2017-06-09T01:20:39.636Z,15.20
2017-06-09T01:23:07.172Z,15.10
2017-06-09T01:25:34.743Z,15.10
2017-06-09T01:28:02.297Z,15.10
2017-06-09T01:30:29.848Z,15.10
2017-06-09T01:32:57.418Z,15.00
2017-06-09T01:35:24.963Z,15.00
2017-06-09T01:37:52.917Z,15.00
2017-06-09T01:40:20.493Z,15.10
2017-06-09T01:42:48.004Z,15.00
2017-06-09T01:45:15.580Z,14.90
2017-06-09T01:47:43.161Z,14.80
2017-06-09T01:50:10.705Z,14.80
2017-06-09T01:52:38.251Z,14.80
2017-06-09T01:55:05.819Z,14.90
2017-06-09T01:57:33.368Z,14.80
2017-06-09T02:00:00.917Z,14.80
2017-06-09T02:02:28.491Z,14.80
2017-06-09T02:04:56.041Z,14.70
2017-06-09T02:07:23.619Z,14.60
2017-06-09T02:09:51.183Z,14.50
2017-06-09T02:12:18.732Z,14.70
2017-06-09T02:14:46.277Z,14.60
2017-06-09T02:17:13.866Z,14.50
2017-06-09T02:19:41.413Z,14.60
2017-06-09T02:22:08.958Z,14.60
2017-06-09T02:24:36.524Z,14.70
2017-06-09T02:27:04.069Z,14.60
2017-06-09T02:29:31.609Z,14.60
2017-06-09T02:31:59.581Z,14.70
2017-06-09T02:34:27.524Z,14.60
2017-06-09T02:36:55.072Z,14.60
2017-06-09T02:39:22.639Z,14.50
2017-06-09T02:41:50.181Z,14.60
2017-06-09T02:44:17.729Z,14.50
2017-06-09T02:46:45.728Z,14.50
2017-06-09T02:49:13.291Z,14.40
2017-06-09T02:51:40.844Z,14.40
2017-06-09T02:54:08.441Z,14.40
2017-06-09T02:56:35.994Z,14.40
2017-06-09T02:59:03.545Z,14.40
2017-06-09T03:01:31.121Z,14.40
2017-06-09T03:03:59.060Z,14.40
2017-06-09T03:06:26.615Z,14.40
2017-06-09T03:08:54.189Z,14.40
2017-06-09T03:11:21.737Z,14.30
2017-06-09T03:13:49.279Z,14.20
2017-06-09T03:16:16.848Z,14.10
2017-06-09T03:18:44.399Z,14.10
2017-06-09T03:21:11.949Z,14.20
2017-06-09T03:23:39.520Z,14.20
2017-06-09T03:26:07.069Z,14.30
2017-06-09T03:28:34.614Z,14.20
2017-06-09T03:31:02.583Z,14.20
2017-06-09T03:33:30.528Z,14.20
2017-06-09T03:35:58.077Z,14.20
2017-06-09T03:38:25.644Z,14.10
2017-06-09T03:40:53.193Z,14.20
2017-06-09T03:43:20.740Z,14.10
2017-06-09T03:45:48.409Z,14.10
2017-06-09T03:48:15.936Z,14.10
2017-06-09T03:50:43.508Z,14.00
2017-06-09T03:53:11.081Z,14.10
2017-06-09T03:55:38.648Z,14.10
2017-06-09T03:58:06.197Z,14.40
2017-06-09T04:00:33.768Z,14.40
2017-06-09T04:03:01.324Z,14.30
2017-06-09T04:05:28.895Z,14.50
2017-06-09T04:07:56.462Z,14.70
2017-06-09T04:10:24.005Z,14.70
2017-06-09T04:12:51.589Z,14.80
2017-06-09T04:15:19.132Z,14.70
2017-06-09T04:17:46.701Z,14.80
2017-06-09T04:20:14.268Z,14.70
2017-06-09T04:22:41.828Z,14.70
2017-06-09T04:25:09.397Z,14.80
2017-06-09T04:27:36.936Z,14.90
2017-06-09T04:30:04.488Z,15.00
2017-06-09T04:32:32.059Z,15.10
2017-06-09T04:34:59.609Z,15.10
2017-06-09T04:37:27.153Z,15.20
2017-06-09T04:39:54.733Z,15.20
2017-06-09T04:42:22.276Z,15.20
2017-06-09T04:44:49.837Z,15.20
2017-06-09T04:47:17.408Z,15.30
2017-06-09T04:49:44.965Z,15.30
2017-06-09T04:52:12.508Z,15.40
2017-06-09T04:54:40.092Z,15.50
2017-06-09T04:57:07.635Z,15.40
2017-06-09T04:59:35.176Z,15.50
2017-06-09T05:02:02.757Z,15.60
2017-06-09T05:04:30.308Z,15.80
2017-06-09T05:06:57.860Z,15.90
2017-06-09T05:09:25.432Z,16.00
2017-06-09T05:11:53.372Z,16.30
2017-06-09T05:14:20.929Z,16.30
2017-06-09T05:16:48.501Z,16.40
2017-06-09T05:19:16.048Z,16.60
2017-06-09T05:21:43.594Z,16.80
2017-06-09T05:24:11.157Z,16.90
2017-06-09T05:26:38.696Z,17.00
2017-06-09T05:29:06.236Z,17.10
2017-06-09T05:31:33.806Z,17.30
2017-06-09T05:34:01.351Z,17.50
2017-06-09T05:36:29.285Z,17.60
2017-06-09T05:38:56.856Z,17.60
2017-06-09T05:41:24.397Z,17.60
2017-06-09T05:43:51.929Z,17.70
2017-06-09T05:46:19.496Z,17.80
2017-06-09T05:48:47.036Z,17.90
2017-06-09T05:51:14.587Z,18.10
2017-06-09T05:53:42.147Z,18.30
2017-06-09T05:56:10.095Z,18.70
2017-06-09T05:58:37.639Z,18.70
2017-06-09T06:01:05.273Z,18.80
2017-06-09T06:03:32.832Z,18.90
2017-06-09T06:06:00.383Z,18.80
2017-06-09T06:08:27.970Z,18.90
2017-06-09T06:10:55.544Z,19.00
2017-06-09T06:13:23.120Z,19.10
2017-06-09T06:15:50.688Z,19.20
2017-06-09T06:18:18.236Z,19.30
2017-06-09T06:20:45.791Z,19.20
2017-06-09T06:23:13.707Z,19.10
2017-06-09T06:25:41.292Z,19.00
2017-06-09T06:28:08.828Z,18.90
2017-06-09T06:30:36.395Z,18.80
2017-06-09T06:33:03.943Z,18.80
2017-06-09T06:35:31.508Z,19.00
2017-06-09T06:37:59.106Z,19.20
2017-06-09T06:40:26.680Z,19.50
2017-06-09T06:42:54.237Z,19.60
2017-06-09T06:45:21.772Z,19.90
2017-06-09T06:47:49.357Z,20.20
2017-06-09T06:50:16.905Z,20.40
2017-06-09T06:52:44.435Z,20.70
2017-06-09T06:55:11.984Z,20.80
2017-06-09T06:57:39.547Z,20.90
2017-06-09T07:00:07.480Z,21.30
2017-06-09T07:02:35.047Z,21.20
2017-06-09T07:05:02.603Z,21.50
2017-06-09T07:07:30.156Z,21.80
2017-06-09T07:09:57.724Z,21.80
2017-06-09T07:12:25.266Z,22.00
2017-06-09T07:14:52.812Z,22.10
2017-06-09T07:17:20.381Z,22.20
2017-06-09T07:19:47.926Z,22.40
2017-06-09T07:22:15.464Z,22.40
2017-06-09T07:24:43.032Z,22.60
2017-06-09T07:27:10.560Z,22.70
2017-06-09T07:29:38.109Z,22.80
2017-06-09T07:32:05.672Z,22.80
2017-06-09T07:34:33.228Z,22.80
2017-06-09T07:37:00.792Z,22.80
2017-06-09T07:39:28.334Z,22.90
2017-06-09T07:41:55.875Z,22.90
2017-06-09T07:44:23.436Z,23.00
2017-06-09T07:46:50.984Z,23.00
2017-06-09T07:49:18.558Z,23.10
2017-06-09T07:51:46.132Z,23.10
2017-06-09T07:54:13.695Z,23.40
2017-06-09T07:56:41.236Z,23.30
2017-06-09T07:59:08.777Z,23.20
2017-06-09T08:01:36.739Z,23.10
2017-06-09T08:04:04.397Z,23.10
2017-06-09T08:06:31.928Z,23.30
2017-06-09T08:08:59.501Z,23.20
2017-06-09T08:11:27.040Z,23.30
2017-06-09T08:13:56.320Z,23.20
2017-06-09T08:16:23.895Z,23.40
2017-06-09T08:18:51.435Z,23.50
2017-06-09T08:21:19.352Z,23.80
2017-06-09T08:23:47.362Z,23.80
2017-06-09T08:26:15.371Z,24.10
2017-06-09T08:28:43.319Z,24.20
2017-06-09T08:31:11.039Z,24.20
2017-06-09T08:33:38.561Z,24.10
2017-06-09T08:36:06.099Z,24.40
2017-06-09T08:38:33.672Z,24.70
2017-06-09T08:41:01.212Z,24.70
2017-06-09T08:43:28.758Z,24.90
2017-06-09T08:45:58.616Z,24.90
2017-06-09T08:48:26.173Z,24.90
2017-06-09T08:50:53.735Z,25.00
2017-06-09T08:53:21.292Z,25.20
2017-06-09T08:55:48.843Z,25.20
2017-06-09T08:58:16.415Z,25.40
2017-06-09T09:00:43.961Z,25.40
2017-06-09T09:03:11.532Z,25.40
2017-06-09T09:05:39.136Z,25.40
2017-06-09T09:08:06.691Z,25.40
2017-06-09T09:10:34.224Z,25.40
2017-06-09T09:13:01.787Z,25.40
2017-06-09T09:15:29.335Z,25.30
2017-06-09T09:17:56.859Z,25.50
2017-06-09T09:20:24.848Z,25.60
2017-06-09T09:22:52.380Z,25.60
2017-06-09T09:25:19.925Z,25.80
2017-06-09T09:27:47.492Z,25.80
2017-06-09T09:30:15.045Z,25.90
2017-06-09T09:32:42.576Z,25.90
2017-06-09T09:35:10.131Z,25.70
2017-06-09T09:37:37.669Z,25.90
2017-06-09T09:40:05.208Z,26.10
2017-06-09T09:42:32.777Z,26.20
2017-06-09T09:45:00.708Z,26.40
2017-06-09T09:47:28.252Z,26.40
2017-06-09T09:49:55.815Z,26.40
2017-06-09T09:52:23.361Z,26.20
2017-06-09T09:54:50.909Z,26.30
2017-06-09T09:57:18.471Z,26.50
2017-06-09T09:59:46.011Z,26.40
2017-06-09T10:02:13.948Z,26.30
2017-06-09T10:04:41.512Z,26.30
2017-06-09T10:07:09.059Z,26.40
2017-06-09T10:09:36.596Z,26.70
2017-06-09T10:12:04.156Z,26.30
2017-06-09T10:14:31.692Z,26.00
2017-06-09T10:16:59.628Z,25.80
2017-06-09T10:19:27.196Z,25.80
2017-06-09T10:21:54.733Z,26.00
2017-06-09T10:24:22.287Z,25.60
2017-06-09T10:26:49.877Z,25.30
2017-06-09T10:29:17.415Z,25.10
2017-06-09T10:31:44.983Z,24.80
2017-06-09T10:34:12.536Z,24.60
2017-06-09T10:36:40.080Z,24.60
2017-06-09T10:39:07.636Z,24.50
2017-06-09T10:41:35.176Z,24.30
2017-06-09T10:44:02.728Z,24.20
2017-06-09T10:46:30.693Z,24.40
2017-06-09T10:48:58.235Z,24.30
2017-06-09T10:51:25.775Z,24.30
2017-06-09T10:53:53.336Z,24.10
2017-06-09T10:56:20.876Z,23.90
2017-06-09T10:58:48.420Z,24.00
2017-06-09T11:01:15.992Z,23.90
2017-06-09T11:03:43.536Z,23.80
2017-06-09T11:06:11.079Z,23.70
2017-06-09T11:08:39.044Z,23.50
2017-06-09T11:11:06.990Z,23.40
2017-06-09T11:13:34.549Z,23.50
2017-06-09T11:16:02.108Z,23.40
2017-06-09T11:18:29.655Z,23.30
2017-06-09T11:20:57.202Z,23.10
2017-06-09T11:23:24.765Z,23.10
2017-06-09T11:25:52.304Z,23.10
2017-06-09T11:28:19.839Z,23.00
2017-06-09T11:30:47.403Z,23.10
2017-06-09T11:33:15.346Z,23.10
2017-06-09T11:35:43.263Z,23.10
2017-06-09T11:38:10.832Z,23.10
2017-06-09T11:40:38.385Z,23.10
2017-06-09T11:43:05.933Z,22.90
2017-06-09T11:45:33.537Z,22.90
2017-06-09T11:48:01.071Z,22.80
2017-06-09T11:50:29.468Z,22.70
2017-06-09T11:52:57.048Z,22.60
2017-06-09T11:55:24.579Z,22.50
2017-06-09T11:57:52.120Z,22.40
2017-06-09T12:00:19.692Z,22.30
2017-06-09T12:02:47.236Z,22.40
2017-06-09T12:05:15.176Z,22.30
2017-06-09T12:07:42.740Z,22.30
2017-06-09T12:10:10.292Z,22.30
2017-06-09T12:12:37.831Z,22.20
2017-06-09T12:15:05.404Z,22.10
2017-06-09T12:17:32.953Z,22.10
2017-06-09T12:20:00.488Z,22.10
2017-06-09T12:22:28.057Z,22.10
2017-06-09T12:24:55.591Z,22.00
2017-06-09T12:27:23.527Z,21.80
2017-06-09T12:29:51.097Z,21.80
2017-06-09T12:32:18.739Z,21.40
2017-06-09T12:34:46.272Z,21.40
2017-06-09T12:37:13.836Z,21.40
2017-06-09T12:39:41.383Z,21.40
2017-06-09T12:42:08.924Z,21.30
2017-06-09T12:44:36.891Z,21.30
2017-06-09T12:47:04.433Z,21.30
2017-06-09T12:49:31.983Z,21.50
2017-06-09T12:51:59.536Z,21.40
2017-06-09T12:54:27.071Z,21.20
2017-06-09T12:56:54.639Z,21.20
2017-06-09T12:59:22.180Z,21.10
2017-06-09T13:01:49.720Z,21.00
2017-06-09T13:04:17.679Z,21.00
2017-06-09T13:06:45.220Z,21.00
2017-06-09T13:09:12.761Z,21.00
2017-06-09T13:11:40.327Z,21.10
2017-06-09T13:14:07.868Z,20.90
2017-06-09T13:16:35.407Z,20.90
2017-06-09T13:19:02.972Z,21.00
2017-06-09T13:21:30.506Z,20.90
2017-06-09T13:23:58.452Z,20.90
2017-06-09T13:26:26.011Z,20.90
2017-06-09T13:28:53.557Z,20.90
2017-06-09T13:31:21.099Z,20.70
2017-06-09T13:33:48.659Z,20.60
2017-06-09T13:36:16.200Z,20.60
2017-06-09T13:38:43.745Z,20.40
2017-06-09T13:41:11.721Z,20.00
2017-06-09T13:43:39.296Z,20.00
2017-06-09T13:46:06.841Z,20.10
2017-06-09T13:48:34.776Z,19.90
2017-06-09T13:51:02.349Z,19.90
2017-06-09T13:53:29.888Z,20.20
2017-06-09T13:55:57.492Z,20.30
2017-06-09T13:58:25.020Z,20.40
2017-06-09T14:00:52.573Z,20.60
2017-06-09T14:03:20.162Z,20.60
2017-06-09T14:05:47.720Z,20.60
2017-06-09T14:08:15.264Z,20.90
2017-06-09T14:10:42.838Z,21.30
2017-06-09T14:13:10.376Z,21.70
2017-06-09T14:15:37.916Z,21.60
2017-06-09T14:18:05.482Z,21.50
2017-06-09T14:20:33.019Z,21.70
2017-06-09T14:23:00.583Z,21.60
2017-06-09T14:25:28.158Z,21.50
2017-06-09T14:27:55.691Z,21.70
2017-06-09T14:30:23.249Z,22.00
2017-06-09T14:32:51.204Z,22.10
2017-06-09T14:35:18.749Z,22.00
2017-06-09T14:37:46.296Z,22.10
2017-06-09T14:40:13.863Z,22.10
2017-06-09T14:42:41.430Z,22.50
2017-06-09T14:45:08.969Z,22.60
2017-06-09T14:47:36.665Z,22.50
2017-06-09T14:50:04.201Z,22.10
2017-06-09T14:52:31.767Z,22.00
2017-06-09T14:54:59.327Z,22.10
2017-06-09T14:57:26.864Z,22.20
2017-06-09T14:59:54.399Z,22.40
2017-06-09T15:02:21.969Z,22.40
2017-06-09T15:04:49.511Z,22.30
2017-06-09T15:07:17.452Z,22.20
2017-06-09T15:09:45.011Z,22.20
2017-06-09T15:12:12.581Z,22.10
2017-06-09T15:14:40.112Z,22.10
2017-06-09T15:17:07.648Z,22.00
2017-06-09T15:19:35.213Z,22.10
2017-06-09T15:22:02.771Z,22.20
2017-06-09T15:24:30.316Z,22.30
2017-06-09T15:26:57.875Z,22.30
2017-06-09T15:29:25.452Z,22.40
2017-06-09T15:31:53.007Z,22.30
2017-06-09T15:34:20.543Z,22.50
2017-06-09T15:36:48.116Z,22.50
2017-06-09T15:39:15.672Z,22.30
2017-06-09T15:41:43.231Z,22.00
2017-06-09T15:44:10.795Z,22.00
2017-06-09T15:46:38.344Z,22.00
2017-06-09T15:49:06.288Z,22.00
2017-06-09T15:51:33.848Z,22.00
2017-06-09T15:54:01.403Z,22.00
2017-06-09T15:56:28.976Z,21.90
2017-06-09T15:58:56.536Z,21.80
2017-06-09T16:01:24.080Z,21.70
2017-06-09T16:03:51.616Z,21.60
2017-06-09T16:06:19.181Z,21.60
2017-06-09T16:08:46.715Z,21.70
2017-06-09T16:11:14.257Z,21.50
2017-06-09T16:13:42.211Z,21.40
2017-06-09T16:16:09.776Z,21.40
2017-06-09T16:18:37.325Z,21.30
2017-06-09T16:21:04.996Z,21.20
2017-06-09T16:23:32.532Z,21.20
2017-06-09T16:26:00.073Z,21.30
2017-06-09T16:28:27.637Z,21.30
2017-06-09T16:30:55.181Z,21.40
2017-06-09T16:33:22.729Z,21.30
2017-06-09T16:35:50.685Z,21.30
2017-06-09T16:38:18.222Z,21.30
2017-06-09T16:40:45.785Z,21.20
2017-06-09T16:43:13.353Z,21.20
2017-06-09T16:45:40.896Z,21.40
2017-06-09T16:48:08.446Z,21.40
2017-06-09T16:50:36.013Z,21.50
2017-06-09T16:53:03.576Z,21.60
2017-06-09T16:55:31.118Z,21.50
2017-06-09T16:57:58.683Z,21.50
2017-06-09T17:00:26.240Z,21.60
2017-06-09T17:02:53.776Z,21.70
2017-06-09T17:05:21.357Z,21.60
2017-06-09T17:07:48.895Z,21.50
2017-06-09T17:10:16.466Z,21.60
2017-06-09T17:12:44.033Z,21.40
2017-06-09T17:15:11.590Z,21.30
2017-06-09T17:17:39.133Z,21.30
2017-06-09T17:20:06.709Z,21.20
2017-06-09T17:22:34.274Z,21.20
2017-06-09T17:25:01.842Z,21.30
2017-06-09T17:27:29.425Z,21.40
2017-06-09T17:29:56.943Z,21.60
2017-06-09T17:32:24.520Z,21.40
2017-06-09T17:34:52.060Z,21.40
2017-06-09T17:37:19.632Z,21.50
2017-06-09T17:39:47.188Z,21.60
2017-06-09T17:42:14.746Z,21.50
2017-06-09T17:44:42.314Z,21.30
2017-06-09T17:47:09.861Z,21.30
2017-06-09T17:49:37.425Z,21.20
2017-06-09T17:52:05.016Z,21.30
2017-06-09T17:54:32.555Z,21.30
2017-06-09T17:57:00.251Z,21.40
2017-06-09T17:59:27.800Z,21.40
2017-06-09T18:01:55.376Z,21.30
2017-06-09T18:04:22.937Z,21.30
2017-06-09T18:06:50.557Z,21.20
2017-06-09T18:09:18.188Z,21.30
2017-06-09T18:11:45.800Z,21.30
2017-06-09T18:14:13.400Z,21.30
2017-06-09T18:16:41.087Z,21.20
2017-06-09T18:19:09.122Z,21.30
2017-06-09T18:21:36.744Z,21.30
2017-06-09T18:24:04.568Z,21.30
2017-06-09T18:26:32.308Z,21.30
2017-06-09T18:29:00.132Z,21.30
2017-06-09T18:31:28.097Z,21.30
2017-06-09T18:33:56.237Z,21.20
2017-06-09T18:36:24.840Z,21.20
2017-06-09T18:38:53.002Z,21.20
2017-06-09T18:41:21.401Z,21.20
2017-06-09T18:43:49.652Z,21.00
2017-06-09T18:46:18.187Z,21.00
2017-06-09T18:48:47.971Z,20.90
2017-06-09T18:51:16.511Z,20.80
2017-06-09T18:53:45.027Z,20.70
2017-06-09T18:56:13.737Z,20.80
2017-06-09T18:58:42.222Z,20.90
2017-06-09T19:01:10.726Z,20.90
2017-06-09T19:03:39.369Z,20.90
2017-06-09T19:06:07.915Z,20.80
2017-06-09T19:08:36.467Z,20.40
2017-06-09T19:11:05.214Z,20.10
2017-06-09T19:13:33.724Z,19.90
2017-06-09T19:16:02.203Z,19.60
2017-06-09T19:18:30.843Z,19.50
2017-06-09T19:21:00.035Z,19.30
2017-06-09T19:23:28.592Z,19.30
2017-06-09T19:25:57.191Z,19.10
2017-06-09T19:28:25.774Z,19.00
2017-06-09T19:30:54.346Z,19.10
2017-06-09T19:33:22.971Z,19.00
2017-06-09T19:35:51.973Z,18.90
2017-06-09T19:38:20.640Z,19.00
2017-06-09T19:40:49.279Z,19.00
2017-06-09T19:43:17.810Z,18.90
2017-06-09T19:45:46.378Z,18.90
2017-06-09T19:48:15.026Z,18.70
2017-06-09T19:50:43.612Z,18.70
2017-06-09T19:53:12.198Z,18.40
2017-06-09T19:55:40.854Z,18.30
2017-06-09T19:58:10.353Z,18.30
2017-06-09T20:00:38.901Z,18.10
2017-06-09T20:03:07.535Z,17.90
2017-06-09T20:05:36.020Z,17.70
2017-06-09T20:08:04.512Z,17.50
2017-06-09T20:10:33.221Z,17.30
2017-06-09T20:13:01.724Z,17.00
2017-06-09T20:15:30.270Z,16.80
2017-06-09T20:17:58.916Z,16.50
2017-06-09T20:20:27.447Z,16.40
2017-06-09T20:22:55.942Z,16.30
2017-06-09T20:25:24.613Z,16.30
2017-06-09T20:27:53.295Z,16.20
2017-06-09T20:30:21.834Z,16.30
2017-06-09T20:32:50.484Z,16.30
2017-06-09T20:35:18.973Z,16.30
2017-06-09T20:37:47.494Z,16.20
2017-06-09T20:40:16.530Z,16.10
2017-06-09T20:42:45.045Z,16.10
2017-06-09T20:45:13.585Z,16.20
2017-06-09T20:47:43.061Z,16.20
2017-06-09T20:50:11.547Z,16.20
2017-06-09T20:52:40.074Z,16.20
2017-06-09T20:55:08.703Z,16.20
2017-06-09T20:57:37.348Z,16.30
2017-06-09T21:00:05.908Z,16.20
2017-06-09T21:02:34.487Z,16.20
2017-06-09T21:05:03.049Z,16.20
2017-06-09T21:07:31.563Z,16.10
2017-06-09T21:10:00.153Z,16.00
2017-06-09T21:12:28.695Z,16.00
2017-06-09T21:14:57.039Z,16.00
2017-06-09T21:17:25.298Z,15.90
2017-06-09T21:19:52.969Z,15.80
2017-06-09T21:22:20.673Z,15.70
2017-06-09T21:24:48.397Z,15.80
2017-06-09T21:27:16.009Z,15.70
2017-06-09T21:29:43.590Z,15.70
2017-06-09T21:32:11.272Z,15.70
2017-06-09T21:34:38.947Z,15.70
2017-06-09T21:37:06.808Z,15.60
2017-06-09T21:39:34.436Z,15.50
2017-06-09T21:42:01.993Z,15.50
2017-06-09T21:44:29.536Z,15.50
2017-06-09T21:46:57.105Z,15.50
2017-06-09T21:49:24.656Z,15.60
2017-06-09T21:51:52.201Z,15.60
2017-06-09T21:54:19.777Z,15.50
2017-06-09T21:56:47.320Z,15.50
2017-06-09T21:59:14.863Z,15.60
2017-06-09T22:01:42.445Z,15.50
2017-06-09T22:04:10.005Z,15.50
2017-06-09T22:06:37.552Z,15.50
2017-06-09T22:09:05.120Z,15.50
2017-06-09T22:11:32.676Z,15.50
2017-06-09T22:14:00.233Z,15.30
2017-06-09T22:16:27.803Z,15.30
2017-06-09T22:18:55.368Z,15.20
2017-06-09T22:21:22.928Z,15.20
2017-06-09T22:23:50.484Z,15.20
2017-06-09T22:26:18.047Z,15.20
2017-06-09T22:28:45.600Z,15.10
2017-06-09T22:31:13.181Z,15.10
2017-06-09T22:33:40.737Z,15.10
2017-06-09T22:36:08.290Z,15.10
2017-06-09T22:38:35.864Z,15.10
2017-06-09T22:41:03.411Z,15.10
2017-06-09T22:43:30.957Z,15.00
2017-06-09T22:45:58.520Z,14.90
2017-06-09T22:48:26.074Z,14.90
2017-06-09T22:50:53.620Z,14.90
2017-06-09T22:53:21.296Z,14.90
2017-06-09T22:55:48.853Z,14.80
2017-06-09T22:58:16.412Z,14.80
2017-06-09T23:00:43.986Z,14.80
2017-06-09T23:03:11.539Z,14.70
2017-06-09T23:05:39.084Z,14.70
2017-06-09T23:08:06.656Z,14.60
2017-06-09T23:10:34.209Z,14.70
2017-06-09T23:13:01.747Z,14.60
2017-06-09T23:15:29.332Z,14.50
2017-06-09T23:17:56.888Z,14.60
2017-06-09T23:20:24.437Z,14.60
2017-06-09T23:22:52.016Z,14.50
2017-06-09T23:25:19.563Z,14.50
2017-06-09T23:27:47.121Z,14.50
2017-06-09T23:30:14.696Z,14.50
2017-06-09T23:32:42.255Z,14.60
2017-06-09T23:35:30.678Z,14.50
2017-06-09T23:37:58.229Z,14.50
2017-06-09T23:40:25.784Z,14.60
2017-06-09T23:42:53.361Z,14.50
2017-06-09T23:45:20.914Z,14.60
2017-06-09T23:47:48.860Z,14.50
2017-06-09T23:50:16.423Z,14.50
2017-06-09T23:52:43.972Z,14.50
2017-06-09T23:55:11.516Z,14.60
2017-06-09T23:57:39.088Z,14.60
